This is the latest recevied weather packets stored in our database for station/object WB7AAV. If no packets are shown the sender has not sent any weather packets the latest 10 day(s).
| Time | Temp. | Humidity | Pressure | Rain* | Wind** | Luminosity | Snow |
|---|---|---|---|---|---|---|---|
| 1777941380 | 13.33° C | 47% | 1010.9 hPa | 0 mm | - | - | - |
| 1777941078 | 13.33° C | 44% | 1011.1 hPa | 0 mm | - | - | - |
| 1777940476 | 13.33° C | 44% | 1010.9 hPa | 0 mm | - | - | - |
| 1777937176 | 15° C | 38% | 1010.2 hPa | 0 mm | - | - | - |
| 1777936275 | 15.56° C | 34% | 1009.9 hPa | 0 mm | - | - | - |
| 1777934774 | 17.22° C | 28% | 1008.9 hPa | 0 mm | - | - | - |
| 1777931471 | 17.78° C | 28% | 1008.8 hPa | 0 mm | - | - | - |
| 1777930271 | 17.22° C | 30% | 1009.2 hPa | 0 mm | - | - | - |
| 1777929970 | 17.22° C | 29% | 1009.2 hPa | 0 mm | - | - | - |
| 1777928177 | 17.78° C | 28% | 1009.4 hPa | 0 mm | - | - | - |
| 1777926670 | 18.33° C | 26% | 1009.2 hPa | 0 mm | - | - | - |
| 1777926069 | 18.89° C | 26% | 1009.2 hPa | 0 mm | - | - | - |
| 1777925771 | 18.89° C | 28% | 1009.4 hPa | 0 mm | - | - | - |
| 1777925470 | 18.33° C | 29% | 1009.4 hPa | 0 mm | - | - | - |
| 1777924872 | 18.33° C | 30% | 1009.5 hPa | 0 mm | - | - | - |
| 1777924570 | 17.78° C | 29% | 1009.5 hPa | 0 mm | - | - | - |
| 1777922469 | 17.78° C | 27% | 1009.5 hPa | 0 mm | - | - | - |
| 1777922170 | 18.33° C | 28% | 1009.4 hPa | 0 mm | - | - | - |
| 1777918571 | 21.11° C | 19% | 1009.5 hPa | 0 mm | - | - | - |
| 1777917370 | 21.11° C | 22% | 1009.7 hPa | 0 mm | - | - | - |
| 1777914366 | 19.44° C | 22% | 1010.7 hPa | 0 mm | - | - | - |
| 1777913765 | 18.89° C | 25% | 1010.8 hPa | 0 mm | - | - | - |
| 1777913167 | 18.89° C | 25% | 1010.8 hPa | 0 mm | - | - | - |
| 1777911963 | 18.33° C | 25% | 1011.1 hPa | 0 mm | - | - | - |
| 1777911061 | 18.33° C | 25% | 1011.1 hPa | 0 mm | - | - | - |
* Rain latest hour (hover to see other rain measurements)
** Current wind speed in m/s (hover to see current wind gust speed)